Time;durP1;ratioP1;P1;durP2;ratioP2;P2;SDS_P1;SDS_P2;PMS_P1;PMS_P2;Temp;Humidity;BMP_temperature;BMP_pressure;BME280_temperature;BME280_humidity;BME280_pressure;Samples;Min_cycle;Max_cycle;Signal;HPM_P1;HPM_P2
2022/06/22 00:00:28;;;;;;;1.65;1.30;;;;;;;13.26;68.76;98170.92;1740090;81;21033;-79
2022/06/22 00:02:55;;;;;;;1.60;1.30;;;;;;;13.23;68.85;98166.86;1718617;81;21062;-80
2022/06/22 00:05:29;;;;;;;1.75;1.10;;;;;;;13.24;68.96;98169.00;1743312;81;21053;-78
2022/06/22 00:07:59;;;;;;;1.90;1.30;;;;;;;13.23;68.85;98182.86;1733924;82;21060;-78
2022/06/22 00:10:40;;;;;;;1.50;1.40;;;;;;;13.22;68.88;98180.41;1739515;80;21011;-79
2022/06/22 00:13:17;;;;;;;1.60;1.50;;;;;;;13.17;69.05;98164.57;1705865;82;21096;-78
2022/06/22 00:15:50;;;;;;;1.40;1.30;;;;;;;13.19;69.17;98166.98;1748543;82;21109;-76
2022/06/22 00:18:45;;;;;;;2.45;1.30;;;;;;;13.26;69.14;98159.73;1751309;82;21589;-79
2022/06/22 00:21:20;;;;;;;1.80;1.50;;;;;;;13.22;69.33;98147.89;1725721;81;21125;-75
2022/06/22 00:23:51;;;;;;;1.57;1.47;;;;;;;13.17;69.53;98149.91;1697412;83;21113;-77
2022/06/22 00:26:31;;;;;;;2.75;1.40;;;;;;;13.14;69.62;98141.53;1695057;83;21565;-78
2022/06/22 00:29:17;;;;;;;3.10;1.50;;;;;;;13.10;69.86;98131.83;1714409;82;21573;-78
2022/06/22 00:31:57;;;;;;;1.72;1.32;;;;;;;13.08;70.00;98131.77;1728916;81;21029;-78
2022/06/22 00:34:31;;;;;;;3.10;1.30;;;;;;;13.14;70.02;98115.68;1741976;81;21121;-78
2022/06/22 00:37:17;;;;;;;;;;;;;;;13.24;69.86;98115.67;1744705;80;21601;-79
2022/06/22 00:39:50;;;;;;;1.72;1.35;;;;;;;13.15;69.66;98109.33;1732024;81;20479;-80
2022/06/22 00:42:41;;;;;;;;;;;;;;;13.07;70.22;98108.80;1753569;81;21089;-76
2022/06/22 00:45:13;;;;;;;1.98;1.15;;;;;;;12.99;70.47;98102.73;1748321;81;20198;-77
2022/06/22 00:47:57;;;;;;;2.55;0.95;;;;;;;12.91;70.77;98109.70;1718833;80;21686;-76
2022/06/22 00:50:28;;;;;;;1.10;1.10;;;;;;;12.86;70.95;98114.07;1741288;81;21550;-76
2022/06/22 00:53:02;;;;;;;2.60;1.20;;;;;;;12.89;71.10;98113.11;1743389;81;21588;-76
2022/06/22 00:55:42;;;;;;;2.22;1.20;;;;;;;12.94;70.99;98101.77;1739508;81;21007;-74
2022/06/22 00:58:29;;;;;;;1.60;1.02;;;;;;;12.89;71.17;98105.64;1744840;81;21025;-75
2022/06/22 01:01:13;;;;;;;1.98;1.12;;;;;;;12.86;71.71;98102.08;1745233;81;21752;-75
2022/06/22 01:04:09;;;;;;;1.67;1.32;;;;;;;12.84;71.70;98094.30;1731710;80;21490;-75
2022/06/22 01:06:45;;;;;;;1.87;0.90;;;;;;;12.82;71.87;98095.04;1731045;81;21058;-75
2022/06/22 01:09:29;;;;;;;1.98;0.90;;;;;;;12.93;71.78;98092.16;1730470;81;21081;-75
2022/06/22 01:12:16;;;;;;;2.95;1.05;;;;;;;13.02;71.49;98089.49;1719478;81;21077;-76
2022/06/22 01:14:57;;;;;;;1.45;1.05;;;;;;;13.00;71.55;98087.57;1702235;82;22108;-77
2022/06/22 01:17:35;;;;;;;2.77;1.10;;;;;;;12.99;71.49;98085.93;1738924;81;21011;-77
2022/06/22 01:20:42;;;;;;;1.77;1.17;;;;;;;12.98;71.59;98078.98;1732910;82;21093;-77
2022/06/22 01:23:32;;;;;;;1.30;1.05;;;;;;;12.96;71.67;98077.03;1735516;82;21574;-79
2022/06/22 01:26:30;;;;;;;1.05;0.95;;;;;;;12.96;71.59;98071.20;1722174;82;21015;-78
2022/06/22 01:29:03;;;;;;;2.25;1.22;;;;;;;13.12;71.57;98071.10;1678983;84;21447;-77
2022/06/22 01:31:29;;;;;;;;;;;;;;;13.09;71.01;98067.54;1702900;82;21082;-77
2022/06/22 01:33:55;;;;;;;0.88;0.80;;;;;;;13.01;71.58;98069.19;1731531;82;20466;-79
2022/06/22 01:36:29;;;;;;;0.80;0.80;;;;;;;12.97;71.52;98062.69;1727319;82;21096;-76
2022/06/22 01:38:55;;;;;;;;;;;;;;;12.92;71.56;98058.04;1719335;82;21082;-76
2022/06/22 01:41:48;;;;;;;3.33;1.20;;;;;;;12.87;71.82;98053.89;1726963;82;21131;-79
2022/06/22 01:44:25;;;;;;;3.35;1.00;;;;;;;12.92;71.95;98062.53;1726793;81;21053;-76
2022/06/22 01:47:17;;;;;;;1.87;1.12;;;;;;;12.97;71.95;98056.02;1730185;81;21016;-79
2022/06/22 01:49:57;;;;;;;1.32;1.15;;;;;;;12.93;72.21;98054.32;1732219;81;21030;-76
2022/06/22 01:53:00;;;;;;;0.95;0.95;;;;;;;12.87;72.56;98054.42;1727938;81;21030;-78
2022/06/22 01:55:41;;;;;;;2.87;1.00;;;;;;;12.82;72.80;98052.93;1715266;82;21859;-77
2022/06/22 01:58:34;;;;;;;3.60;1.00;;;;;;;12.85;73.14;98057.83;1721288;82;21022;-79
2022/06/22 02:01:31;;;;;;;3.42;1.55;;;;;;;12.93;73.03;98053.52;1725405;82;21061;-76
2022/06/22 02:04:51;;;;;;;1.15;1.07;;;;;;;12.86;73.18;98058.11;1721885;82;21073;-76
2022/06/22 02:07:44;;;;;;;2.62;1.02;;;;;;;12.77;73.72;98065.08;1728808;82;21526;-77
2022/06/22 02:10:37;;;;;;;1.50;1.17;;;;;;;12.72;74.13;98054.27;1724372;82;21198;-78
2022/06/22 02:13:42;;;;;;;;;;;;;;;12.84;74.02;98061.52;1726055;81;21499;-75
2022/06/22 02:16:20;;;;;;;1.32;1.02;;;;;;;12.83;74.25;98063.38;1726965;81;20185;-77
2022/06/22 02:18:51;;;;;;;1.30;0.95;;;;;;;12.75;74.51;98060.49;1719138;81;21561;-74
2022/06/22 02:21:23;;;;;;;1.00;0.98;;;;;;;12.69;74.88;98072.05;1725707;81;21113;-76
2022/06/22 02:24:02;;;;;;;1.15;1.00;;;;;;;12.68;75.14;98066.94;1731925;81;21429;-77
2022/06/22 02:26:36;;;;;;;2.45;1.10;;;;;;;12.74;75.00;98062.84;1738200;81;21589;-76
2022/06/22 02:29:03;;;;;;;1.60;1.20;;;;;;;12.74;75.24;98062.84;1724957;82;21058;-74
2022/06/22 02:31:30;;;;;;;1.55;1.00;;;;;;;12.75;75.31;98063.16;1733914;81;21050;-77
2022/06/22 02:33:57;;;;;;;2.98;1.55;;;;;;;12.74;75.25;98068.17;1731667;82;21563;-75
2022/06/22 02:36:26;;;;;;;1.10;1.00;;;;;;;12.74;75.15;98060.70;1731478;81;21609;-76
2022/06/22 02:38:55;;;;;;;1.07;0.98;;;;;;;12.83;75.21;98059.38;1738548;80;21093;-75
2022/06/22 02:44:31;;;;;;;2.15;1.10;;;;;;;12.93;75.12;98060.98;1726462;81;21125;-76
2022/06/22 02:47:23;;;;;;;1.10;1.00;;;;;;;12.93;74.94;98060.98;1735193;80;21085;-76
2022/06/22 02:50:26;;;;;;;1.25;1.02;;;;;;;12.89;74.88;98067.00;1736565;81;21231;-75
2022/06/22 02:52:56;;;;;;;3.08;1.25;;;;;;;12.93;74.97;98061.51;1733529;81;21012;-77
2022/06/22 02:55:25;;;;;;;11.75;9.08;;;;;;;13.00;74.84;98060.92;1735342;81;21070;-78
2022/06/22 02:57:57;;;;;;;1.30;1.20;;;;;;;12.98;75.05;98062.99;1682084;82;21033;-75
2022/06/22 03:00:29;;;;;;;2.20;1.05;;;;;;;12.97;75.00;98064.02;1718260;81;21049;-77
2022/06/22 03:03:01;;;;;;;1.27;0.97;;;;;;;12.94;75.16;98057.30;1736198;80;21138;-76
2022/06/22 03:05:27;;;;;;;1.70;1.00;;;;;;;13.01;75.26;98055.86;1720900;81;21051;-78
2022/06/22 03:07:57;;;;;;;2.77;1.25;;;;;;;13.11;74.90;98055.33;1735016;80;21026;-79
2022/06/22 03:10:43;;;;;;;2.05;1.20;;;;;;;13.09;74.79;98052.07;1746992;82;21052;-78
2022/06/22 03:13:17;;;;;;;1.45;1.20;;;;;;;13.09;74.85;98048.88;1748395;80;21529;-78
2022/06/22 03:15:43;;;;;;;1.20;1.10;;;;;;;13.08;74.72;98051.80;1696605;83;21768;-79
2022/06/22 03:18:14;;;;;;;1.20;0.95;;;;;;;13.08;74.82;98055.80;1738071;80;21573;-79
2022/06/22 03:20:52;;;;;;;1.60;1.20;;;;;;;13.21;74.87;98061.45;1751112;82;21289;-79
2022/06/22 03:23:44;;;;;;;1.10;0.90;;;;;;;13.25;74.77;98051.95;1741116;81;21628;-77
2022/06/22 03:26:22;;;;;;;2.00;1.30;;;;;;;13.24;74.71;98053.01;1750097;81;21041;-76
2022/06/22 03:29:17;;;;;;;2.50;1.50;;;;;;;13.19;74.97;98048.33;1750576;81;21116;-73
2022/06/22 03:31:48;;;;;;;2.77;1.52;;;;;;;13.17;74.93;98051.25;1744273;81;21022;-76
2022/06/22 03:34:20;;;;;;;1.50;0.98;;;;;;;13.15;75.11;98061.83;1741794;80;21049;-76
2022/06/22 03:36:58;;;;;;;2.27;1.12;;;;;;;13.26;74.96;98061.59;1730722;81;21101;-76
2022/06/22 03:39:28;;;;;;;2.35;1.12;;;;;;;13.32;74.90;98058.85;1736345;82;21061;-76
2022/06/22 03:42:02;;;;;;;1.70;1.40;;;;;;;13.32;74.76;98060.19;1741653;81;21746;-77
2022/06/22 03:44:44;;;;;;;1.85;1.30;;;;;;;13.31;74.76;98061.77;1733523;80;21054;-76
2022/06/22 03:47:37;;;;;;;3.40;1.40;;;;;;;13.29;74.72;98069.95;1741985;80;21516;-77
2022/06/22 03:50:28;;;;;;;3.02;1.02;;;;;;;13.29;74.89;98073.95;1747830;80;21025;-74
2022/06/22 03:53:00;;;;;;;1.92;1.67;;;;;;;13.42;74.68;98070.30;1742417;81;21076;-75
2022/06/22 03:55:33;;;;;;;1.45;1.10;;;;;;;13.43;74.75;98075.14;1743937;81;21133;-79
2022/06/22 03:58:00;;;;;;;2.20;1.42;;;;;;;13.40;74.94;98071.05;1733372;81;21022;-75
2022/06/22 04:00:27;;;;;;;3.67;1.42;;;;;;;13.42;75.13;98076.16;1749268;82;21068;-75
2022/06/22 04:02:54;;;;;;;1.70;1.30;;;;;;;13.48;74.80;98068.09;1738029;81;21049;-78
2022/06/22 04:05:25;;;;;;;1.77;1.22;;;;;;;13.54;74.77;98071.67;1727256;82;21058;-78
2022/06/22 04:07:53;;;;;;;;;;;;;;;13.69;74.71;98064.58;1735888;82;21006;-78
2022/06/22 04:10:42;;;;;;;3.05;1.55;;;;;;;13.87;74.45;98067.17;1722248;81;20135;-80
2022/06/22 04:13:19;;;;;;;2.33;1.60;;;;;;;13.90;73.72;98070.70;1749343;81;21656;-75
2022/06/22 04:15:55;;;;;;;2.45;1.40;;;;;;;13.87;73.64;98071.67;1742017;81;20990;-78
2022/06/22 04:18:32;;;;;;;1.92;1.57;;;;;;;13.85;73.91;98069.27;1755106;82;21049;-78
2022/06/22 04:21:02;;;;;;;1.35;1.20;;;;;;;13.90;73.87;98074.70;1752397;82;21126;-78
2022/06/22 04:23:49;;;;;;;1.20;1.10;;;;;;;13.97;73.80;98070.61;1750128;81;21140;-79
2022/06/22 04:26:27;;;;;;;1.65;1.10;;;;;;;14.11;73.26;98066.66;1736581;81;21069;-75
2022/06/22 04:28:59;;;;;;;3.12;1.40;;;;;;;14.22;72.74;98066.38;1738206;82;21581;-81
2022/06/22 04:31:30;;;;;;;2.22;1.50;;;;;;;14.22;72.74;98071.72;1750035;81;21037;-82
2022/06/22 04:34:01;;;;;;;4.30;1.40;;;;;;;14.21;72.64;98074.09;1710493;82;21123;-82
2022/06/22 04:36:39;;;;;;;2.87;1.35;;;;;;;14.20;72.99;98071.14;1722600;82;21522;-81
2022/06/22 04:39:20;;;;;;;1.47;1.32;;;;;;;14.26;72.98;98075.55;1739948;80;21065;-82
2022/06/22 04:41:47;;;;;;;2.77;1.32;;;;;;;14.31;72.86;98076.17;1726617;82;21032;-82
2022/06/22 04:44:17;;;;;;;2.60;1.22;;;;;;;14.41;72.52;98071.08;1737067;81;21387;-82
2022/06/22 04:46:46;;;;;;;2.12;1.52;;;;;;;14.55;72.10;98078.32;1755373;80;21156;-81
2022/06/22 04:49:33;;;;;;;1.77;1.40;;;;;;;14.59;71.97;98083.52;1733691;82;21062;-80
2022/06/22 04:52:23;;;;;;;1.42;1.32;;;;;;;14.59;71.97;98083.52;1746186;81;21045;-81
2022/06/22 04:54:53;;;;;;;4.20;1.40;;;;;;;14.63;71.63;98087.34;1736826;82;21061;-80
2022/06/22 04:57:25;;;;;;;2.30;1.82;;;;;;;14.66;71.76;98092.23;1743106;81;21009;-79
2022/06/22 04:59:52;;;;;;;3.45;1.47;;;;;;;14.65;71.99;98093.26;1734951;81;21703;-80
2022/06/22 05:02:22;;;;;;;5.53;1.90;;;;;;;14.66;71.69;98096.23;1722375;81;21006;-81
2022/06/22 05:04:53;;;;;;;5.53;2.20;;;;;;;14.76;71.81;98096.97;1741229;80;21539;-81
2022/06/22 05:07:47;;;;;;;2.20;1.90;;;;;;;14.89;71.47;98097.22;1744910;81;21061;-78
2022/06/22 05:10:31;;;;;;;2.45;1.95;;;;;;;14.89;71.18;98099.39;1708310;83;21308;-79
2022/06/22 05:13:07;;;;;;;2.60;2.22;;;;;;;14.84;71.47;98094.46;1745255;81;21831;-82
2022/06/22 05:15:36;;;;;;;2.85;2.02;;;;;;;14.87;71.72;98091.30;1731973;81;21347;-80
2022/06/22 05:18:21;;;;;;;4.33;2.17;;;;;;;14.95;71.44;98092.28;1738049;80;20963;-81
2022/06/22 05:20:55;;;;;;;5.25;2.50;;;;;;;15.02;70.98;98095.62;1740977;81;21055;-80
2022/06/22 05:23:24;;;;;;;2.87;2.20;;;;;;;15.07;70.88;98096.27;1740477;80;20986;-79
2022/06/22 05:28:15;;;;;;;4.62;2.20;;;;;;;15.25;70.47;98099.27;1782201;78;28090;-79
2022/06/22 05:30:52;;;;;;;3.90;2.47;;;;;;;15.38;69.78;98096.85;1740659;80;21030;-78
2022/06/22 05:33:20;;;;;;;3.87;2.12;;;;;;;15.52;69.64;98101.65;1738932;80;21132;-80
2022/06/22 05:36:04;;;;;;;4.05;2.37;;;;;;;15.58;68.76;98093.72;1693754;82;21052;-80
2022/06/22 05:38:31;;;;;;;;;;;;;;;15.57;68.67;98093.42;1730308;81;21042;-78
2022/06/22 05:41:00;;;;;;;2.92;1.98;;;;;;;15.62;68.89;98088.97;1714583;81;20180;-82
2022/06/22 05:43:26;;;;;;;2.22;2.00;;;;;;;15.68;68.48;98089.88;1709442;81;21147;-79
2022/06/22 05:45:54;;;;;;;2.67;2.22;;;;;;;15.72;68.20;98088.33;1715789;81;21513;-79
2022/06/22 05:48:24;;;;;;;2.30;2.10;;;;;;;15.76;67.96;98092.21;1713567;81;21140;-80
2022/06/22 05:51:08;;;;;;;3.22;2.30;;;;;;;15.85;68.43;98095.28;1717557;81;21048;-81
2022/06/22 05:53:56;;;;;;;4.03;2.00;;;;;;;15.93;67.75;98097.55;1723545;81;21112;-80
2022/06/22 05:56:50;;;;;;;3.20;2.00;;;;;;;15.96;67.53;98102.44;1700487;82;21641;-80
2022/06/22 05:59:28;;;;;;;3.05;2.35;;;;;;;15.96;67.81;98095.74;1708591;82;21323;-79
2022/06/22 06:02:18;;;;;;;3.27;1.90;;;;;;;15.95;67.39;98095.98;1697241;84;21136;-82
2022/06/22 06:05:04;;;;;;;4.03;1.80;;;;;;;15.96;67.41;98104.31;1693998;83;21039;-82
2022/06/22 06:07:46;;;;;;;2.87;1.80;;;;;;;15.98;67.04;98102.20;1708870;84;21018;-83
2022/06/22 06:10:39;;;;;;;2.50;1.83;;;;;;;15.90;66.72;98105.55;1710416;84;21117;-81
2022/06/22 06:13:20;;;;;;;3.75;1.80;;;;;;;15.77;66.80;98106.40;1706428;83;21639;-83
2022/06/22 06:15:49;;;;;;;1.62;1.52;;;;;;;15.69;67.33;98107.04;1702509;82;21535;-82
2022/06/22 06:18:22;;;;;;;2.40;1.67;;;;;;;15.67;67.65;98101.66;1717341;81;21041;-82
2022/06/22 06:20:56;;;;;;;4.67;1.95;;;;;;;15.70;67.88;98104.66;1723462;81;21059;-82
2022/06/22 06:23:37;;;;;;;2.65;1.50;;;;;;;15.72;67.96;98097.70;1723783;81;21028;-81
2022/06/22 06:29:06;;;;;;;1.85;1.67;;;;;;;15.89;67.47;98102.58;1666462;85;21041;-80
2022/06/22 06:32:01;;;;;;;4.80;1.87;;;;;;;15.95;67.04;98101.33;1643798;85;21094;-82
2022/06/22 06:34:41;;;;;;;2.70;1.60;;;;;;;16.04;66.76;98103.90;1672482;85;21067;-80
2022/06/22 06:37:31;;;;;;;1.70;1.60;;;;;;;16.08;65.97;98105.84;1709520;82;21049;-83
2022/06/22 06:39:57;;;;;;;2.65;1.50;;;;;;;16.00;66.24;98105.45;1717077;82;21105;-82
2022/06/22 06:42:38;;;;;;;2.10;1.50;;;;;;;16.03;66.39;98109.80;1719621;82;21065;-78
2022/06/22 06:45:13;;;;;;;2.40;1.95;;;;;;;16.12;66.06;98106.97;1710641;82;21086;-81
2022/06/22 06:47:40;;;;;;;2.67;1.80;;;;;;;16.29;65.35;98117.68;1708531;82;21055;-79
2022/06/22 06:50:23;;;;;;;1.67;1.57;;;;;;;16.38;65.33;98118.09;1709093;82;21058;-81
2022/06/22 06:53:01;;;;;;;1.65;1.55;;;;;;;16.52;64.81;98117.22;1677329;84;21098;-82
2022/06/22 06:55:36;;;;;;;1.60;1.42;;;;;;;16.54;63.98;98118.32;1688298;84;21101;-81
2022/06/22 06:58:19;;;;;;;2.15;1.70;;;;;;;16.43;64.02;98116.81;1707700;82;22099;-81
2022/06/22 07:00:47;;;;;;;2.85;1.98;;;;;;;16.44;64.17;98118.98;1700854;82;21002;-80
2022/06/22 07:03:19;;;;;;;3.02;1.75;;;;;;;16.50;64.07;98130.86;1708474;82;21046;-80
2022/06/22 07:05:46;;;;;;;2.75;1.90;;;;;;;16.50;64.00;98123.36;1708618;82;21248;-79
2022/06/22 07:08:18;;;;;;;2.72;2.00;;;;;;;16.46;63.76;98124.38;1723122;82;21045;-79
2022/06/22 07:10:57;;;;;;;3.27;2.10;;;;;;;16.38;63.77;98132.84;1712503;82;21443;-80
2022/06/22 07:13:41;;;;;;;4.62;1.92;;;;;;;16.32;63.89;98139.15;1715802;82;21014;-81
2022/06/22 07:16:15;;;;;;;3.52;2.37;;;;;;;16.33;64.36;98137.30;1723072;82;21082;-79
2022/06/22 07:18:56;;;;;;;5.78;2.83;;;;;;;16.31;64.27;98142.90;1715840;82;21337;-80
2022/06/22 07:21:34;;;;;;;3.52;2.02;;;;;;;16.23;64.70;98143.31;1709349;82;21026;-80
2022/06/22 07:24:15;;;;;;;2.98;2.08;;;;;;;16.19;64.69;98140.84;1714571;82;21047;-81
2022/06/22 07:26:59;;;;;;;2.35;2.00;;;;;;;16.17;64.55;98140.25;1729396;82;21240;-81
2022/06/22 07:29:51;;;;;;;2.20;2.00;;;;;;;16.16;64.21;98138.10;1709351;82;21113;-81
2022/06/22 07:32:35;;;;;;;2.50;1.70;;;;;;;16.15;63.65;98133.81;1714010;82;21231;-75
2022/06/22 07:35:10;;;;;;;2.35;1.77;;;;;;;16.09;63.57;98136.94;1715676;82;21137;-77
2022/06/22 07:37:42;;;;;;;2.47;1.87;;;;;;;16.08;63.64;98139.85;1726224;82;21101;-77
2022/06/22 07:40:16;;;;;;;1.50;1.40;;;;;;;16.11;63.71;98138.04;1713931;82;21545;-79
2022/06/22 07:42:45;;;;;;;1.55;1.45;;;;;;;16.20;62.98;98147.27;1711798;82;21008;-80
2022/06/22 07:45:17;;;;;;;1.80;1.60;;;;;;;16.22;63.05;98148.37;1714624;82;22158;-78
2022/06/22 07:48:02;;;;;;;3.27;1.67;;;;;;;16.26;62.98;98150.84;1722473;82;21065;-76
2022/06/22 07:50:32;;;;;;;2.27;1.50;;;;;;;16.34;62.83;98151.80;1718117;82;21094;-81
2022/06/22 07:53:07;;;;;;;1.50;1.40;;;;;;;16.47;62.77;98147.42;1717777;82;21050;-81
2022/06/22 07:55:39;;;;;;;3.22;1.60;;;;;;;16.66;62.34;98147.97;1708553;82;21152;-81
2022/06/22 07:58:32;;;;;;;1.82;1.65;;;;;;;16.89;61.81;98155.02;1717313;82;21054;-83
2022/06/22 08:01:06;;;;;;;3.15;2.22;;;;;;;17.08;61.53;98151.52;1710901;82;21050;-82
2022/06/22 08:03:49;;;;;;;2.20;2.00;;;;;;;17.34;61.09;98145.65;1718566;82;20951;-84
2022/06/22 08:06:24;;;;;;;2.52;1.85;;;;;;;17.54;61.02;98149.08;1717954;77;21035;-80
2022/06/22 08:08:55;;;;;;;2.72;2.05;;;;;;;17.75;60.91;98148.25;1715424;82;21601;-77
2022/06/22 08:11:33;;;;;;;3.72;1.80;;;;;;;17.96;60.50;98149.80;1714106;82;21108;-77
2022/06/22 08:14:16;;;;;;;1.70;1.60;;;;;;;18.15;59.99;98155.07;1709956;82;21059;-81
2022/06/22 08:16:48;;;;;;;3.25;1.80;;;;;;;18.32;58.84;98152.80;1713559;82;21653;-79
2022/06/22 08:19:14;;;;;;;2.05;1.82;;;;;;;18.42;58.05;98153.66;1715422;82;21194;-79
2022/06/22 08:21:48;;;;;;;4.35;1.80;;;;;;;18.42;58.06;98154.20;1707984;82;21051;-80
2022/06/22 08:24:18;;;;;;;2.75;1.70;;;;;;;18.49;58.34;98151.31;1707885;82;21130;-79
2022/06/22 08:26:44;;;;;;;3.10;1.98;;;;;;;18.55;58.27;98155.66;1724725;81;21037;-79
2022/06/22 08:29:11;;;;;;;2.10;1.90;;;;;;;18.60;57.99;98159.19;1725486;82;21001;-79
2022/06/22 08:31:50;;;;;;;6.22;2.22;;;;;;;18.63;58.10;98153.81;1730912;82;21026;-77
2022/06/22 08:34:24;;;;;;;3.08;1.90;;;;;;;18.70;58.42;98153.58;1729120;82;21041;-79
2022/06/22 08:36:55;;;;;;;2.90;1.70;;;;;;;18.80;58.90;98152.34;1735055;82;21530;-79
2022/06/22 08:39:33;;;;;;;3.27;2.47;;;;;;;18.95;57.99;98151.08;1728878;82;21002;-78
2022/06/22 08:42:39;;;;;;;2.40;2.20;;;;;;;19.08;57.59;98150.32;1726631;82;21042;-79
2022/06/22 08:45:37;;;;;;;2.10;1.80;;;;;;;19.23;57.30;98151.73;1736385;82;21475;-79
2022/06/22 08:48:17;;;;;;;2.02;1.92;;;;;;;19.34;56.66;98160.67;1718991;82;21062;-79
2022/06/22 08:51:24;;;;;;;2.80;1.80;;;;;;;19.31;58.83;98170.61;1731513;82;21128;-79
2022/06/22 08:54:23;;;;;;;2.83;1.77;;;;;;;19.17;60.30;98177.02;1736290;82;21572;-81
2022/06/22 08:57:04;;;;;;;2.20;1.80;;;;;;;18.98;60.99;98180.14;1721833;82;21014;-80
2022/06/22 09:00:14;;;;;;;2.12;1.80;;;;;;;18.83;61.74;98181.40;1719309;82;21577;-79
2022/06/22 09:03:17;;;;;;;1.60;1.50;;;;;;;18.70;61.62;98180.47;1713258;82;21033;-79
2022/06/22 09:06:06;;;;;;;1.80;1.70;;;;;;;18.52;62.34;98186.53;1745206;82;21317;-79
2022/06/22 09:09:21;;;;;;;2.15;1.98;;;;;;;18.42;63.13;98187.81;1721100;82;21548;-78
2022/06/22 09:11:56;;;;;;;2.37;1.80;;;;;;;18.50;66.24;98192.71;1748861;81;21510;-80
2022/06/22 09:14:34;;;;;;;2.60;1.60;;;;;;;18.72;65.13;98181.05;1745732;82;21082;-79
2022/06/22 09:17:24;;;;;;;1.60;1.50;;;;;;;18.98;64.17;98176.10;1736032;82;21018;-80
2022/06/22 09:20:24;;;;;;;2.00;1.45;;;;;;;19.31;62.48;98170.61;1725470;82;21234;-80
2022/06/22 09:23:35;;;;;;;3.90;1.55;;;;;;;19.73;59.00;98167.80;1723634;82;21110;-79
2022/06/22 09:26:30;;;;;;;1.50;1.40;;;;;;;20.18;56.32;98171.63;1725785;81;21021;-81
2022/06/22 09:29:04;;;;;;;5.08;1.87;;;;;;;20.37;54.13;98175.95;1654841;85;21565;-79
2022/06/22 09:31:58;;;;;;;4.53;1.98;;;;;;;20.31;57.98;98177.58;1725926;82;21127;-80
2022/06/22 09:34:42;;;;;;;2.87;1.75;;;;;;;20.09;59.24;98193.99;1707335;82;22092;-78
2022/06/22 09:37:31;;;;;;;2.80;1.50;;;;;;;19.84;59.80;98192.90;1722517;82;21034;-77
2022/06/22 09:40:25;;;;;;;3.02;1.77;;;;;;;19.65;61.48;98193.89;1701298;82;21057;-79
2022/06/22 09:43:35;;;;;;;2.37;2.05;;;;;;;19.82;64.98;98198.55;1709393;82;21553;-78
2022/06/22 09:46:25;;;;;;;5.37;1.50;;;;;;;20.32;65.21;98194.84;1726334;82;20987;-77
2022/06/22 09:49:23;;;;;;;1.60;1.50;;;;;;;21.24;63.71;98192.55;1722000;82;21595;-78
2022/06/22 09:52:19;;;;;;;2.30;1.95;;;;;;;22.06;59.89;98189.98;1716320;82;21015;-78
2022/06/22 09:58:44;;;;;;;2.10;1.95;;;;;;;23.39;56.47;98184.70;1710069;82;21086;-78
2022/06/22 10:01:49;;;;;;;2.37;1.70;;;;;;;24.18;52.19;98171.17;1713370;82;22164;-78
2022/06/22 10:05:05;;;;;;;3.00;1.55;;;;;;;24.76;51.93;98169.39;1714051;81;21798;-78
2022/06/22 10:07:55;;;;;;;2.20;1.57;;;;;;;25.24;50.20;98174.47;1728492;82;21042;-77
2022/06/22 10:10:36;;;;;;;1.80;1.70;;;;;;;25.73;47.99;98179.44;1713933;82;21110;-78
2022/06/22 10:13:36;;;;;;;3.98;1.85;;;;;;;26.20;45.23;98174.03;1720577;82;21062;-78
2022/06/22 10:16:27;;;;;;;2.35;1.77;;;;;;;26.52;44.39;98172.17;1710960;82;21041;-77
2022/06/22 10:19:32;;;;;;;2.42;1.85;;;;;;;26.68;43.77;98180.78;1709783;82;21523;-77
2022/06/22 10:22:04;;;;;;;1.57;1.47;;;;;;;26.81;43.04;98178.52;1715693;82;21098;-77
2022/06/22 10:25:05;;;;;;;2.02;1.60;;;;;;;26.96;42.37;98180.58;1703695;82;21078;-77
2022/06/22 10:27:40;;;;;;;1.70;1.60;;;;;;;27.13;41.86;98191.55;1713067;82;21073;-78
2022/06/22 10:30:39;;;;;;;1.98;1.87;;;;;;;26.98;41.17;98189.24;1735627;82;21076;-78
2022/06/22 10:33:27;;;;;;;1.77;1.67;;;;;;;26.46;41.82;98195.17;1737130;82;21105;-78
2022/06/22 10:36:37;;;;;;;1.60;1.50;;;;;;;25.91;42.12;98205.73;1726326;82;21002;-78
2022/06/22 10:39:35;;;;;;;3.55;1.70;;;;;;;25.31;42.22;98199.34;1726219;82;21069;-79
2022/06/22 10:45:33;;;;;;;1.62;1.52;;;;;;;24.51;43.66;98207.29;1725976;82;21043;-77
2022/06/22 10:48:20;;;;;;;2.00;1.87;;;;;;;24.39;43.92;98207.72;1726890;81;21275;-79
2022/06/22 10:50:57;;;;;;;1.75;1.60;;;;;;;24.27;44.69;98208.75;1731898;82;21069;-80
2022/06/22 10:53:54;;;;;;;2.00;1.80;;;;;;;24.19;44.56;98219.72;1721738;82;21094;-81
2022/06/22 10:56:45;;;;;;;1.80;1.70;;;;;;;24.26;44.83;98222.05;1698939;83;21069;-78
2022/06/22 10:59:33;;;;;;;2.08;1.52;;;;;;;24.72;44.70;98226.76;1733426;82;21006;-80
2022/06/22 11:02:42;;;;;;;1.62;1.52;;;;;;;25.54;43.52;98221.18;1720896;82;21124;-80
2022/06/22 11:05:23;;;;;;;2.42;1.85;;;;;;;26.37;41.95;98210.67;1732007;81;21066;-81
2022/06/22 11:08:29;;;;;;;2.45;1.50;;;;;;;27.20;40.34;98213.71;1726093;82;21038;-85
2022/06/22 11:11:38;;;;;;;1.50;1.40;;;;;;;27.84;39.05;98217.34;1735520;82;21570;-84
2022/06/22 11:14:27;;;;;;;1.42;1.40;;;;;;;28.56;38.10;98211.60;1725804;82;21435;-81
2022/06/22 11:17:43;;;;;;;1.60;1.50;;;;;;;29.19;36.58;98229.70;1723892;82;21132;-78
2022/06/22 11:20:55;;;;;;;1.62;1.52;;;;;;;29.58;36.15;98230.47;1732717;82;21511;-79
2022/06/22 11:24:19;;;;;;;2.05;1.70;;;;;;;29.85;35.60;98229.78;1727298;82;21116;-79
2022/06/22 11:31:02;;;;;;;3.60;1.30;;;;;;;30.74;33.72;98237.74;1747045;82;21061;-79
2022/06/22 11:32:59;;;;;;;1.50;1.40;;;;;;;31.30;33.10;98236.72;1713700;82;21159;-79
2022/06/22 11:35:39;;;;;;;2.05;1.47;;;;;;;31.66;31.74;98231.58;1739001;82;21034;-78
2022/06/22 11:39:01;;;;;;;1.50;1.40;;;;;;;31.89;31.42;98225.84;1729398;82;21028;-76
2022/06/22 11:42:10;;;;;;;1.50;1.40;;;;;;;32.38;31.03;98219.42;1738053;82;21002;-81
2022/06/22 11:48:56;;;;;;;1.40;1.30;;;;;;;33.18;29.67;98225.08;1733330;82;21240;-81
2022/06/22 11:51:46;;;;;;;1.57;1.42;;;;;;;33.02;30.09;98227.22;1751124;82;21006;-83
2022/06/22 11:54:51;;;;;;;1.35;1.27;;;;;;;32.97;30.37;98221.19;1736335;81;20975;-85
2022/06/22 11:57:41;;;;;;;1.30;1.30;;;;;;;32.48;30.74;98233.23;1726965;82;21502;-81
2022/06/22 12:00:30;;;;;;;2.15;1.70;;;;;;;31.47;31.47;98242.59;1735781;82;21089;-83
2022/06/22 12:03:35;;;;;;;1.82;1.72;;;;;;;30.32;32.19;98244.66;1725335;81;21489;-80
2022/06/22 12:06:20;;;;;;;1.55;1.45;;;;;;;29.18;33.20;98244.49;1739106;80;21000;-78
2022/06/22 12:09:24;;;;;;;3.47;1.50;;;;;;;28.38;33.98;98251.20;1728188;82;21014;-80
2022/06/22 12:12:13;;;;;;;1.70;1.60;;;;;;;28.36;34.46;98236.27;1729271;82;21065;-80
2022/06/22 12:17:39;;;;;;;1.50;1.40;;;;;;;28.81;33.87;98235.33;1723226;82;21548;-80
2022/06/22 12:20:33;;;;;;;1.70;1.60;;;;;;;28.35;34.01;98237.38;1723498;82;21105;-80
2022/06/22 12:23:34;;;;;;;2.25;1.50;;;;;;;27.77;34.33;98240.77;1728976;82;21069;-80
2022/06/22 12:26:12;;;;;;;1.62;1.52;;;;;;;27.22;34.92;98246.91;1730831;82;21066;-80
2022/06/22 12:29:11;;;;;;;2.37;1.55;;;;;;;26.98;35.63;98248.63;1729027;81;21058;-80
2022/06/22 12:31:47;;;;;;;2.37;1.42;;;;;;;27.26;36.32;98242.46;1713246;82;21819;-80
2022/06/22 12:34:29;;;;;;;2.87;1.70;;;;;;;27.82;36.82;98237.89;1712193;82;21531;-84
2022/06/22 12:36:59;;;;;;;1.55;1.45;;;;;;;27.92;36.59;98238.17;1716019;82;21026;-81
2022/06/22 12:39:40;;;;;;;1.57;1.47;;;;;;;27.54;37.12;98249.04;1724571;82;21106;-78
2022/06/22 12:42:45;;;;;;;2.75;1.62;;;;;;;27.05;37.77;98250.91;1709472;82;21089;-82
2022/06/22 12:45:41;;;;;;;1.80;1.70;;;;;;;27.08;38.24;98259.81;1708732;82;21612;-80
2022/06/22 12:48:16;;;;;;;2.35;1.50;;;;;;;27.22;38.06;98257.02;1711717;82;20995;-80
2022/06/22 12:51:00;;;;;;;2.17;1.95;;;;;;;27.19;38.09;98258.99;1733855;82;21546;-81
2022/06/22 12:53:49;;;;;;;2.92;1.50;;;;;;;27.28;37.77;98261.23;1714569;82;21578;-76
2022/06/22 12:56:43;;;;;;;3.30;1.40;;;;;;;27.40;37.18;98254.61;1722505;82;21082;-78
2022/06/22 12:59:21;;;;;;;;;;;;;;;27.88;36.54;98256.28;1716191;82;21123;-77
2022/06/22 13:01:48;;;;;;;2.05;1.95;;;;;;;28.81;35.32;98248.98;1708799;82;20126;-76
2022/06/22 13:04:22;;;;;;;1.50;1.40;;;;;;;29.70;34.36;98246.17;1706623;82;21050;-76
2022/06/22 13:06:52;;;;;;;3.33;1.87;;;;;;;30.47;33.50;98243.25;1718315;82;21018;-77
2022/06/22 13:09:18;;;;;;;2.35;1.60;;;;;;;31.14;32.59;98240.71;1702038;82;21571;-77